Anawalt, West Virginia
Current Conditions -  °F | °C
As of 3:52 PM on Thursday 23 Oct 2014 (Local Time) from KBLF Reporting Station
Overcast Overcast  
Wind Chill: 50°   Ceiling: 2100
Heat Index: 50°   Visibility: 10mi
Dew Point: 39°   Wind: 7mph
Humidity: 66%   Direction: 310°NW
Pressure: 30.11"   Gusts: 17mph
Location:  37.34°N, 81.44°W
Report Text: KBLF 231952Z AUTO 31006G15KT 10SM OVC021 10/04 A3011 RMK AO2 SLP193 T01000039
Loading
Personal Weather Stations






























Interactive Weather Map
Tropical Storm Tracking
New forecast layout! Learn more

10-Day Weather Forecast

Advertisements
Track Severe Weather on mobile